sensor_id;sensor_type;location;lat;lon;timestamp;temperature;humidity
67163;DHT22;54092;53.088;8.850;2022-12-29T00:01:17;9.70;99.90
67163;DHT22;54092;53.088;8.850;2022-12-29T00:03:45;9.70;99.90
67163;DHT22;54092;53.088;8.850;2022-12-29T00:06:11;9.80;99.90
67163;DHT22;54092;53.088;8.850;2022-12-29T00:08:36;9.70;99.90
67163;DHT22;54092;53.088;8.850;2022-12-29T00:11:10;9.70;99.90
67163;DHT22;54092;53.088;8.850;2022-12-29T00:13:36;9.70;99.90
67163;DHT22;54092;53.088;8.850;2022-12-29T00:16:20;9.70;99.90
67163;DHT22;54092;53.088;8.850;2022-12-29T00:18:46;9.70;99.90
67163;DHT22;54092;53.088;8.850;2022-12-29T00:21:19;9.70;99.90
67163;DHT22;54092;53.088;8.850;2022-12-29T00:24:04;9.80;99.90
67163;DHT22;54092;53.088;8.850;2022-12-29T00:27:10;9.80;99.90
67163;DHT22;54092;53.088;8.850;2022-12-29T00:29:54;10.00;99.90
67163;DHT22;54092;53.088;8.850;2022-12-29T00:32:38;10.00;99.90
67163;DHT22;54092;53.088;8.850;2022-12-29T00:37:52;10.00;99.90
67163;DHT22;54092;53.088;8.850;2022-12-29T00:40:37;10.10;99.90
67163;DHT22;54092;53.088;8.850;2022-12-29T00:43:21;10.10;99.90
67163;DHT22;54092;53.088;8.850;2022-12-29T00:46:05;10.10;99.90
67163;DHT22;54092;53.088;8.850;2022-12-29T00:48:30;10.10;99.90
67163;DHT22;54092;53.088;8.850;2022-12-29T00:51:28;10.10;99.90
67163;DHT22;54092;53.088;8.850;2022-12-29T00:53:54;10.10;99.90
67163;DHT22;54092;53.088;8.850;2022-12-29T00:56:19;10.10;99.90
67163;DHT22;54092;53.088;8.850;2022-12-29T00:58:45;10.00;99.90
67163;DHT22;54092;53.088;8.850;2022-12-29T01:01:10;10.00;99.90
67163;DHT22;54092;53.088;8.850;2022-12-29T01:03:37;9.90;99.90
67163;DHT22;54092;53.088;8.850;2022-12-29T01:06:04;9.90;99.90
67163;DHT22;54092;53.088;8.850;2022-12-29T01:08:31;9.90;99.90
67163;DHT22;54092;53.088;8.850;2022-12-29T01:11:01;9.90;99.90
67163;DHT22;54092;53.088;8.850;2022-12-29T01:13:26;9.90;99.90
67163;DHT22;54092;53.088;8.850;2022-12-29T01:15:53;9.90;99.90
67163;DHT22;54092;53.088;8.850;2022-12-29T01:18:19;10.00;99.90
67163;DHT22;54092;53.088;8.850;2022-12-29T01:20:45;10.00;99.90
67163;DHT22;54092;53.088;8.850;2022-12-29T01:23:10;10.10;99.90
67163;DHT22;54092;53.088;8.850;2022-12-29T01:25:36;10.10;99.90
67163;DHT22;54092;53.088;8.850;2022-12-29T01:28:01;10.20;99.90
67163;DHT22;54092;53.088;8.850;2022-12-29T01:30:27;10.20;99.90
67163;DHT22;54092;53.088;8.850;2022-12-29T01:32:52;10.20;99.90
67163;DHT22;54092;53.088;8.850;2022-12-29T01:35:18;10.20;99.90
67163;DHT22;54092;53.088;8.850;2022-12-29T01:37:44;10.20;99.90
67163;DHT22;54092;53.088;8.850;2022-12-29T01:40:10;10.40;99.90
67163;DHT22;54092;53.088;8.850;2022-12-29T01:42:35;10.40;99.90
67163;DHT22;54092;53.088;8.850;2022-12-29T01:45:12;10.40;99.90
67163;DHT22;54092;53.088;8.850;2022-12-29T01:47:52;10.40;99.90
67163;DHT22;54092;53.088;8.850;2022-12-29T01:53:07;10.40;99.90
67163;DHT22;54092;53.088;8.850;2022-12-29T01:55:44;10.30;99.90
67163;DHT22;54092;53.088;8.850;2022-12-29T01:58:11;10.40;99.90
67163;DHT22;54092;53.088;8.850;2022-12-29T02:00:38;10.50;99.90
67163;DHT22;54092;53.088;8.850;2022-12-29T02:03:05;10.50;99.90
67163;DHT22;54092;53.088;8.850;2022-12-29T02:07:57;10.50;99.90
67163;DHT22;54092;53.088;8.850;2022-12-29T02:10:25;10.50;99.90
67163;DHT22;54092;53.088;8.850;2022-12-29T02:12:51;10.60;99.90
67163;DHT22;54092;53.088;8.850;2022-12-29T02:15:17;10.50;99.90
67163;DHT22;54092;53.088;8.850;2022-12-29T02:26:29;10.60;99.90
67163;DHT22;54092;53.088;8.850;2022-12-29T02:29:10;10.60;99.90
67163;DHT22;54092;53.088;8.850;2022-12-29T02:34:14;10.60;99.90
67163;DHT22;54092;53.088;8.850;2022-12-29T02:37:03;10.70;99.90
67163;DHT22;54092;53.088;8.850;2022-12-29T02:42:46;10.70;99.90
67163;DHT22;54092;53.088;8.850;2022-12-29T02:45:21;10.70;99.90
67163;DHT22;54092;53.088;8.850;2022-12-29T02:47:51;10.80;99.90
67163;DHT22;54092;53.088;8.850;2022-12-29T02:50:36;10.70;99.90
67163;DHT22;54092;53.088;8.850;2022-12-29T02:53:06;10.70;99.90
67163;DHT22;54092;53.088;8.850;2022-12-29T02:55:33;10.70;99.90
67163;DHT22;54092;53.088;8.850;2022-12-29T02:58:20;10.70;99.90
67163;DHT22;54092;53.088;8.850;2022-12-29T03:01:23;10.60;99.90
67163;DHT22;54092;53.088;8.850;2022-12-29T03:04:08;10.70;99.90
67163;DHT22;54092;53.088;8.850;2022-12-29T03:12:31;10.80;99.90
67163;DHT22;54092;53.088;8.850;2022-12-29T03:15:27;10.80;99.90
67163;DHT22;54092;53.088;8.850;2022-12-29T03:18:21;10.90;99.90
67163;DHT22;54092;53.088;8.850;2022-12-29T03:20:55;10.90;99.90
67163;DHT22;54092;53.088;8.850;2022-12-29T03:23:23;11.00;99.90
67163;DHT22;54092;53.088;8.850;2022-12-29T03:25:55;10.90;99.90
67163;DHT22;54092;53.088;8.850;2022-12-29T03:28:50;10.90;99.90
67163;DHT22;54092;53.088;8.850;2022-12-29T03:31:17;11.00;99.90
67163;DHT22;54092;53.088;8.850;2022-12-29T03:33:45;10.90;99.90
67163;DHT22;54092;53.088;8.850;2022-12-29T03:36:16;10.90;99.90
67163;DHT22;54092;53.088;8.850;2022-12-29T03:39:08;10.90;99.90
67163;DHT22;54092;53.088;8.850;2022-12-29T03:41:37;10.90;99.90
67163;DHT22;54092;53.088;8.850;2022-12-29T03:44:06;10.80;99.90
67163;DHT22;54092;53.088;8.850;2022-12-29T03:46:32;10.80;99.90
67163;DHT22;54092;53.088;8.850;2022-12-29T03:48:57;10.90;99.90
67163;DHT22;54092;53.088;8.850;2022-12-29T03:51:23;10.90;99.90
67163;DHT22;54092;53.088;8.850;2022-12-29T03:53:48;10.90;99.90
67163;DHT22;54092;53.088;8.850;2022-12-29T03:56:14;10.90;99.90
67163;DHT22;54092;53.088;8.850;2022-12-29T03:58:39;10.80;99.90
67163;DHT22;54092;53.088;8.850;2022-12-29T04:01:04;10.80;99.90
67163;DHT22;54092;53.088;8.850;2022-12-29T04:03:30;10.80;99.90
67163;DHT22;54092;53.088;8.850;2022-12-29T04:05:55;10.80;99.90
67163;DHT22;54092;53.088;8.850;2022-12-29T04:08:21;10.70;99.90
67163;DHT22;54092;53.088;8.850;2022-12-29T04:10:48;10.70;99.90
67163;DHT22;54092;53.088;8.850;2022-12-29T04:13:14;10.50;99.90
67163;DHT22;54092;53.088;8.850;2022-12-29T04:15:40;10.50;99.90
67163;DHT22;54092;53.088;8.850;2022-12-29T04:18:06;10.40;99.90
67163;DHT22;54092;53.088;8.850;2022-12-29T04:20:32;10.40;99.90
67163;DHT22;54092;53.088;8.850;2022-12-29T04:23:16;10.40;99.90
67163;DHT22;54092;53.088;8.850;2022-12-29T04:25:45;10.40;99.90
67163;DHT22;54092;53.088;8.850;2022-12-29T04:28:11;10.40;99.90
67163;DHT22;54092;53.088;8.850;2022-12-29T04:30:36;10.50;99.90
67163;DHT22;54092;53.088;8.850;2022-12-29T04:33:02;10.50;99.90
67163;DHT22;54092;53.088;8.850;2022-12-29T04:35:27;10.50;99.90
67163;DHT22;54092;53.088;8.850;2022-12-29T04:37:53;10.50;99.90
67163;DHT22;54092;53.088;8.850;2022-12-29T04:40:18;10.60;99.90
67163;DHT22;54092;53.088;8.850;2022-12-29T04:42:44;10.60;99.90
67163;DHT22;54092;53.088;8.850;2022-12-29T04:45:10;10.60;99.90
67163;DHT22;54092;53.088;8.850;2022-12-29T04:47:35;10.60;99.90
67163;DHT22;54092;53.088;8.850;2022-12-29T04:50:01;10.70;99.90
67163;DHT22;54092;53.088;8.850;2022-12-29T04:52:26;10.70;99.90
67163;DHT22;54092;53.088;8.850;2022-12-29T04:54:52;10.70;99.90
67163;DHT22;54092;53.088;8.850;2022-12-29T04:57:17;10.80;99.90
67163;DHT22;54092;53.088;8.850;2022-12-29T04:59:43;10.80;99.90
67163;DHT22;54092;53.088;8.850;2022-12-29T05:02:08;10.90;99.90
67163;DHT22;54092;53.088;8.850;2022-12-29T05:04:34;10.90;99.90
67163;DHT22;54092;53.088;8.850;2022-12-29T05:06:59;10.90;99.90
67163;DHT22;54092;53.088;8.850;2022-12-29T05:09:25;10.90;99.90
67163;DHT22;54092;53.088;8.850;2022-12-29T05:11:50;10.90;99.90
67163;DHT22;54092;53.088;8.850;2022-12-29T05:14:16;11.00;99.90
67163;DHT22;54092;53.088;8.850;2022-12-29T05:16:41;10.90;99.90
67163;DHT22;54092;53.088;8.850;2022-12-29T05:19:07;10.80;99.90
67163;DHT22;54092;53.088;8.850;2022-12-29T05:21:32;10.70;99.90
67163;DHT22;54092;53.088;8.850;2022-12-29T05:23:57;10.60;99.90
67163;DHT22;54092;53.088;8.850;2022-12-29T05:26:23;10.50;99.90
67163;DHT22;54092;53.088;8.850;2022-12-29T05:28:48;10.50;99.90
67163;DHT22;54092;53.088;8.850;2022-12-29T05:31:14;10.40;99.90
67163;DHT22;54092;53.088;8.850;2022-12-29T05:33:39;10.20;99.90
67163;DHT22;54092;53.088;8.850;2022-12-29T05:36:06;10.20;99.90
67163;DHT22;54092;53.088;8.850;2022-12-29T05:38:32;10.10;99.90
67163;DHT22;54092;53.088;8.850;2022-12-29T05:40:58;10.10;99.90
67163;DHT22;54092;53.088;8.850;2022-12-29T05:43:23;10.10;99.90
67163;DHT22;54092;53.088;8.850;2022-12-29T05:45:49;10.20;99.90
67163;DHT22;54092;53.088;8.850;2022-12-29T05:48:15;10.20;99.90
67163;DHT22;54092;53.088;8.850;2022-12-29T05:50:40;10.30;99.90
67163;DHT22;54092;53.088;8.850;2022-12-29T05:53:06;10.20;99.90
67163;DHT22;54092;53.088;8.850;2022-12-29T05:55:31;10.30;99.90
67163;DHT22;54092;53.088;8.850;2022-12-29T05:57:57;10.20;99.90
67163;DHT22;54092;53.088;8.850;2022-12-29T06:00:22;10.30;99.90
67163;DHT22;54092;53.088;8.850;2022-12-29T06:02:48;10.30;99.90
67163;DHT22;54092;53.088;8.850;2022-12-29T06:05:14;10.30;99.90
67163;DHT22;54092;53.088;8.850;2022-12-29T06:07:39;10.40;99.90
67163;DHT22;54092;53.088;8.850;2022-12-29T06:10:06;10.40;99.90
67163;DHT22;54092;53.088;8.850;2022-12-29T06:12:31;10.40;99.90
67163;DHT22;54092;53.088;8.850;2022-12-29T06:14:57;10.40;99.90
67163;DHT22;54092;53.088;8.850;2022-12-29T06:17:22;10.30;99.90
67163;DHT22;54092;53.088;8.850;2022-12-29T06:19:48;10.50;99.90
67163;DHT22;54092;53.088;8.850;2022-12-29T06:22:13;10.50;99.90
67163;DHT22;54092;53.088;8.850;2022-12-29T06:24:39;10.40;99.90
67163;DHT22;54092;53.088;8.850;2022-12-29T06:27:05;10.40;99.90
67163;DHT22;54092;53.088;8.850;2022-12-29T06:29:30;10.40;99.90
67163;DHT22;54092;53.088;8.850;2022-12-29T06:31:55;10.40;99.90
67163;DHT22;54092;53.088;8.850;2022-12-29T06:34:24;10.40;99.90
67163;DHT22;54092;53.088;8.850;2022-12-29T06:36:49;10.40;99.90
67163;DHT22;54092;53.088;8.850;2022-12-29T06:39:15;10.30;99.90
67163;DHT22;54092;53.088;8.850;2022-12-29T06:41:40;10.40;99.90
67163;DHT22;54092;53.088;8.850;2022-12-29T06:44:06;10.40;99.90
67163;DHT22;54092;53.088;8.850;2022-12-29T06:46:31;10.40;99.90
67163;DHT22;54092;53.088;8.850;2022-12-29T06:48:57;10.40;99.90
67163;DHT22;54092;53.088;8.850;2022-12-29T06:51:22;10.40;99.90
67163;DHT22;54092;53.088;8.850;2022-12-29T06:53:48;10.30;99.90
67163;DHT22;54092;53.088;8.850;2022-12-29T06:56:13;10.30;99.90
67163;DHT22;54092;53.088;8.850;2022-12-29T06:58:39;10.20;99.90
67163;DHT22;54092;53.088;8.850;2022-12-29T07:01:04;10.20;99.90
67163;DHT22;54092;53.088;8.850;2022-12-29T07:03:30;10.10;99.90
67163;DHT22;54092;53.088;8.850;2022-12-29T07:05:55;10.10;99.90
67163;DHT22;54092;53.088;8.850;2022-12-29T07:08:23;10.00;99.90
67163;DHT22;54092;53.088;8.850;2022-12-29T07:10:49;10.00;99.90
67163;DHT22;54092;53.088;8.850;2022-12-29T07:13:14;10.00;99.90
67163;DHT22;54092;53.088;8.850;2022-12-29T07:15:40;10.00;99.90
67163;DHT22;54092;53.088;8.850;2022-12-29T07:18:05;9.90;99.90
67163;DHT22;54092;53.088;8.850;2022-12-29T07:20:31;9.90;99.90
67163;DHT22;54092;53.088;8.850;2022-12-29T07:22:57;9.90;99.90
67163;DHT22;54092;53.088;8.850;2022-12-29T07:25:23;9.80;99.90
67163;DHT22;54092;53.088;8.850;2022-12-29T07:27:49;9.80;99.90
67163;DHT22;54092;53.088;8.850;2022-12-29T07:30:15;9.80;99.90
67163;DHT22;54092;53.088;8.850;2022-12-29T07:32:40;9.80;99.90
67163;DHT22;54092;53.088;8.850;2022-12-29T07:35:06;9.90;99.90
67163;DHT22;54092;53.088;8.850;2022-12-29T07:37:32;9.80;99.90
67163;DHT22;54092;53.088;8.850;2022-12-29T07:39:57;9.80;99.90
67163;DHT22;54092;53.088;8.850;2022-12-29T07:42:23;9.70;99.90
67163;DHT22;54092;53.088;8.850;2022-12-29T07:44:48;9.70;99.90
67163;DHT22;54092;53.088;8.850;2022-12-29T07:47:14;9.70;99.90
67163;DHT22;54092;53.088;8.850;2022-12-29T07:49:39;9.70;99.90
67163;DHT22;54092;53.088;8.850;2022-12-29T07:52:05;9.70;99.90
67163;DHT22;54092;53.088;8.850;2022-12-29T07:54:30;9.80;99.90
67163;DHT22;54092;53.088;8.850;2022-12-29T07:56:56;9.80;99.90
67163;DHT22;54092;53.088;8.850;2022-12-29T07:59:22;9.70;99.90
67163;DHT22;54092;53.088;8.850;2022-12-29T08:01:48;9.80;99.90
67163;DHT22;54092;53.088;8.850;2022-12-29T08:04:13;9.80;99.90
67163;DHT22;54092;53.088;8.850;2022-12-29T08:06:39;9.90;99.90
67163;DHT22;54092;53.088;8.850;2022-12-29T08:09:04;9.90;99.90
67163;DHT22;54092;53.088;8.850;2022-12-29T08:11:30;9.80;99.90
67163;DHT22;54092;53.088;8.850;2022-12-29T08:13:55;9.80;99.90
67163;DHT22;54092;53.088;8.850;2022-12-29T08:16:21;9.80;99.90
67163;DHT22;54092;53.088;8.850;2022-12-29T08:18:46;9.90;99.90
67163;DHT22;54092;53.088;8.850;2022-12-29T08:21:12;9.90;99.90
67163;DHT22;54092;53.088;8.850;2022-12-29T08:23:37;9.90;99.90
67163;DHT22;54092;53.088;8.850;2022-12-29T08:26:04;9.90;99.90
67163;DHT22;54092;53.088;8.850;2022-12-29T08:28:31;9.90;99.90
67163;DHT22;54092;53.088;8.850;2022-12-29T08:31:01;9.90;99.90
67163;DHT22;54092;53.088;8.850;2022-12-29T08:33:27;9.90;99.90
67163;DHT22;54092;53.088;8.850;2022-12-29T08:35:58;10.00;99.90
67163;DHT22;54092;53.088;8.850;2022-12-29T08:38:23;10.00;99.90
67163;DHT22;54092;53.088;8.850;2022-12-29T08:40:48;10.00;99.90
67163;DHT22;54092;53.088;8.850;2022-12-29T08:43:16;10.00;99.90
67163;DHT22;54092;53.088;8.850;2022-12-29T08:45:41;10.00;99.90
67163;DHT22;54092;53.088;8.850;2022-12-29T08:48:07;10.00;99.90
67163;DHT22;54092;53.088;8.850;2022-12-29T08:50:32;10.00;99.90
67163;DHT22;54092;53.088;8.850;2022-12-29T08:52:58;10.10;99.90
67163;DHT22;54092;53.088;8.850;2022-12-29T08:55:23;10.10;99.90
67163;DHT22;54092;53.088;8.850;2022-12-29T08:57:49;10.20;99.90
67163;DHT22;54092;53.088;8.850;2022-12-29T09:00:14;10.30;99.90
67163;DHT22;54092;53.088;8.850;2022-12-29T09:02:40;10.30;99.90
67163;DHT22;54092;53.088;8.850;2022-12-29T09:05:06;10.40;99.90
67163;DHT22;54092;53.088;8.850;2022-12-29T09:07:31;10.40;99.90
67163;DHT22;54092;53.088;8.850;2022-12-29T09:09:57;10.40;99.90
67163;DHT22;54092;53.088;8.850;2022-12-29T09:12:22;10.40;99.90
67163;DHT22;54092;53.088;8.850;2022-12-29T09:14:48;10.30;99.90
67163;DHT22;54092;53.088;8.850;2022-12-29T09:17:13;10.40;99.90
67163;DHT22;54092;53.088;8.850;2022-12-29T09:19:57;10.30;99.90
67163;DHT22;54092;53.088;8.850;2022-12-29T09:22:23;10.40;99.90
67163;DHT22;54092;53.088;8.850;2022-12-29T09:24:48;10.50;99.90
67163;DHT22;54092;53.088;8.850;2022-12-29T09:27:14;10.40;99.90
67163;DHT22;54092;53.088;8.850;2022-12-29T09:29:39;10.30;99.90
67163;DHT22;54092;53.088;8.850;2022-12-29T09:32:05;10.30;99.90
67163;DHT22;54092;53.088;8.850;2022-12-29T09:34:31;10.40;99.90
67163;DHT22;54092;53.088;8.850;2022-12-29T09:36:56;10.40;99.90
67163;DHT22;54092;53.088;8.850;2022-12-29T09:39:22;10.40;99.90
67163;DHT22;54092;53.088;8.850;2022-12-29T09:42:06;10.50;99.90
67163;DHT22;54092;53.088;8.850;2022-12-29T09:47:12;10.60;99.90
67163;DHT22;54092;53.088;8.850;2022-12-29T09:49:48;10.60;99.90
67163;DHT22;54092;53.088;8.850;2022-12-29T09:52:27;10.60;99.90
67163;DHT22;54092;53.088;8.850;2022-12-29T09:55:11;10.60;99.90
67163;DHT22;54092;53.088;8.850;2022-12-29T09:57:49;10.50;99.90
67163;DHT22;54092;53.088;8.850;2022-12-29T10:00:22;10.50;99.90
67163;DHT22;54092;53.088;8.850;2022-12-29T10:06:03;10.50;99.90
67163;DHT22;54092;53.088;8.850;2022-12-29T10:08:50;10.70;99.90
67163;DHT22;54092;53.088;8.850;2022-12-29T10:14:55;10.90;99.90
67163;DHT22;54092;53.088;8.850;2022-12-29T10:17:45;10.70;99.90
67163;DHT22;54092;53.088;8.850;2022-12-29T10:25:20;10.40;99.90
67163;DHT22;54092;53.088;8.850;2022-12-29T10:27:49;10.40;99.90
67163;DHT22;54092;53.088;8.850;2022-12-29T10:30:16;10.40;99.90
67163;DHT22;54092;53.088;8.850;2022-12-29T10:32:47;10.40;99.90
67163;DHT22;54092;53.088;8.850;2022-12-29T10:35:28;10.60;99.90
67163;DHT22;54092;53.088;8.850;2022-12-29T10:38:28;11.30;99.90
67163;DHT22;54092;53.088;8.850;2022-12-29T10:41:21;11.00;99.90
67163;DHT22;54092;53.088;8.850;2022-12-29T10:43:53;10.80;99.90
67163;DHT22;54092;53.088;8.850;2022-12-29T10:46:23;10.60;99.90
67163;DHT22;54092;53.088;8.850;2022-12-29T10:48:50;10.50;99.90
67163;DHT22;54092;53.088;8.850;2022-12-29T10:51:37;10.40;99.90
67163;DHT22;54092;53.088;8.850;2022-12-29T10:54:18;10.50;99.90
67163;DHT22;54092;53.088;8.850;2022-12-29T10:56:51;10.60;99.90
67163;DHT22;54092;53.088;8.850;2022-12-29T10:59:24;10.50;99.90
67163;DHT22;54092;53.088;8.850;2022-12-29T11:06:51;10.50;99.90
67163;DHT22;54092;53.088;8.850;2022-12-29T11:09:29;10.50;99.90
67163;DHT22;54092;53.088;8.850;2022-12-29T11:11:55;10.50;99.90
67163;DHT22;54092;53.088;8.850;2022-12-29T11:14:27;10.60;99.90
67163;DHT22;54092;53.088;8.850;2022-12-29T11:17:01;10.70;99.90
67163;DHT22;54092;53.088;8.850;2022-12-29T11:19:29;10.70;99.90
67163;DHT22;54092;53.088;8.850;2022-12-29T11:22:22;10.70;99.90
67163;DHT22;54092;53.088;8.850;2022-12-29T11:24:49;10.70;99.90
67163;DHT22;54092;53.088;8.850;2022-12-29T11:27:16;10.80;99.90
67163;DHT22;54092;53.088;8.850;2022-12-29T11:29:43;10.80;99.90
67163;DHT22;54092;53.088;8.850;2022-12-29T11:32:28;10.90;99.90
67163;DHT22;54092;53.088;8.850;2022-12-29T11:34:57;10.90;99.90
67163;DHT22;54092;53.088;8.850;2022-12-29T11:37:36;11.00;99.90
67163;DHT22;54092;53.088;8.850;2022-12-29T11:42:38;11.10;99.90
67163;DHT22;54092;53.088;8.850;2022-12-29T11:45:22;11.20;99.90
67163;DHT22;54092;53.088;8.850;2022-12-29T11:48:08;11.20;99.90
67163;DHT22;54092;53.088;8.850;2022-12-29T11:50:37;11.20;99.90
67163;DHT22;54092;53.088;8.850;2022-12-29T11:53:19;11.20;99.90
67163;DHT22;54092;53.088;8.850;2022-12-29T11:55:55;11.30;99.90
67163;DHT22;54092;53.088;8.850;2022-12-29T11:58:32;11.30;99.90
67163;DHT22;54092;53.088;8.850;2022-12-29T12:01:10;11.30;99.90
67163;DHT22;54092;53.088;8.850;2022-12-29T12:03:46;11.30;99.90
67163;DHT22;54092;53.088;8.850;2022-12-29T12:06:16;11.40;99.90
67163;DHT22;54092;53.088;8.850;2022-12-29T12:11:21;11.50;99.90
67163;DHT22;54092;53.088;8.850;2022-12-29T12:14:17;11.40;99.90
67163;DHT22;54092;53.088;8.850;2022-12-29T12:16:52;11.30;99.90
67163;DHT22;54092;53.088;8.850;2022-12-29T12:24:50;11.30;99.90
67163;DHT22;54092;53.088;8.850;2022-12-29T12:30:13;11.20;99.90
67163;DHT22;54092;53.088;8.850;2022-12-29T12:43:45;11.10;99.90
67163;DHT22;54092;53.088;8.850;2022-12-29T12:46:34;11.10;99.90
67163;DHT22;54092;53.088;8.850;2022-12-29T12:52:07;11.10;99.90
67163;DHT22;54092;53.088;8.850;2022-12-29T12:54:47;11.10;99.90
67163;DHT22;54092;53.088;8.850;2022-12-29T13:00:17;10.80;99.90
67163;DHT22;54092;53.088;8.850;2022-12-29T13:03:10;10.70;99.90
67163;DHT22;54092;53.088;8.850;2022-12-29T13:11:59;10.70;99.90
67163;DHT22;54092;53.088;8.850;2022-12-29T13:14:37;10.70;99.90
67163;DHT22;54092;53.088;8.850;2022-12-29T13:19:45;10.60;99.90
67163;DHT22;54092;53.088;8.850;2022-12-29T13:24:51;10.60;99.90
67163;DHT22;54092;53.088;8.850;2022-12-29T13:30:10;10.50;99.90
67163;DHT22;54092;53.088;8.850;2022-12-29T13:33:13;10.40;99.90
67163;DHT22;54092;53.088;8.850;2022-12-29T13:35:53;10.50;99.90
67163;DHT22;54092;53.088;8.850;2022-12-29T13:38:39;10.50;99.90
67163;DHT22;54092;53.088;8.850;2022-12-29T13:41:09;10.50;99.90
67163;DHT22;54092;53.088;8.850;2022-12-29T13:43:39;10.60;99.90
67163;DHT22;54092;53.088;8.850;2022-12-29T13:46:27;10.70;99.90
67163;DHT22;54092;53.088;8.850;2022-12-29T13:49:01;10.90;99.90
67163;DHT22;54092;53.088;8.850;2022-12-29T13:51:30;10.70;99.90
67163;DHT22;54092;53.088;8.850;2022-12-29T13:54:19;10.60;99.90
67163;DHT22;54092;53.088;8.850;2022-12-29T13:56:54;10.60;99.90
67163;DHT22;54092;53.088;8.850;2022-12-29T13:59:36;10.60;99.90
67163;DHT22;54092;53.088;8.850;2022-12-29T14:05:26;10.90;99.90
67163;DHT22;54092;53.088;8.850;2022-12-29T14:07:59;11.00;99.90
67163;DHT22;54092;53.088;8.850;2022-12-29T14:10:34;11.20;99.90
67163;DHT22;54092;53.088;8.850;2022-12-29T14:13:09;11.10;99.90
67163;DHT22;54092;53.088;8.850;2022-12-29T14:15:39;11.20;99.90
67163;DHT22;54092;53.088;8.850;2022-12-29T14:18:24;11.00;99.90
67163;DHT22;54092;53.088;8.850;2022-12-29T14:20:57;10.70;99.90
67163;DHT22;54092;53.088;8.850;2022-12-29T14:28:32;10.40;99.90
67163;DHT22;54092;53.088;8.850;2022-12-29T14:31:00;10.40;99.90
67163;DHT22;54092;53.088;8.850;2022-12-29T14:33:29;10.40;99.90
67163;DHT22;54092;53.088;8.850;2022-12-29T14:35:56;10.40;99.90
67163;DHT22;54092;53.088;8.850;2022-12-29T14:38:25;10.30;99.90
67163;DHT22;54092;53.088;8.850;2022-12-29T14:40:51;10.20;99.90
67163;DHT22;54092;53.088;8.850;2022-12-29T14:43:21;10.20;99.90
67163;DHT22;54092;53.088;8.850;2022-12-29T14:45:59;10.10;99.90
67163;DHT22;54092;53.088;8.850;2022-12-29T14:48:38;10.10;99.90
67163;DHT22;54092;53.088;8.850;2022-12-29T14:51:29;10.10;99.90
67163;DHT22;54092;53.088;8.850;2022-12-29T14:53:55;10.10;99.90
67163;DHT22;54092;53.088;8.850;2022-12-29T14:56:26;10.10;99.90
67163;DHT22;54092;53.088;8.850;2022-12-29T14:58:54;9.90;99.90
67163;DHT22;54092;53.088;8.850;2022-12-29T15:01:29;9.90;99.90
67163;DHT22;54092;53.088;8.850;2022-12-29T15:04:03;9.70;99.90
67163;DHT22;54092;53.088;8.850;2022-12-29T15:06:30;9.70;99.90
67163;DHT22;54092;53.088;8.850;2022-12-29T15:09:01;9.60;99.90
67163;DHT22;54092;53.088;8.850;2022-12-29T15:14:23;9.70;99.90
67163;DHT22;54092;53.088;8.850;2022-12-29T15:16:49;9.60;99.90
67163;DHT22;54092;53.088;8.850;2022-12-29T15:19:22;9.70;99.90
67163;DHT22;54092;53.088;8.850;2022-12-29T15:21:48;9.70;99.90
67163;DHT22;54092;53.088;8.850;2022-12-29T15:24:14;9.70;99.90
67163;DHT22;54092;53.088;8.850;2022-12-29T15:26:42;9.80;99.90
67163;DHT22;54092;53.088;8.850;2022-12-29T15:29:30;9.70;99.90
67163;DHT22;54092;53.088;8.850;2022-12-29T15:32:01;9.50;99.90
67163;DHT22;54092;53.088;8.850;2022-12-29T15:34:35;9.40;99.90
67163;DHT22;54092;53.088;8.850;2022-12-29T15:37:06;9.40;99.90
67163;DHT22;54092;53.088;8.850;2022-12-29T15:39:31;9.40;99.90
67163;DHT22;54092;53.088;8.850;2022-12-29T15:42:03;9.50;99.90
67163;DHT22;54092;53.088;8.850;2022-12-29T15:44:38;9.50;99.90
67163;DHT22;54092;53.088;8.850;2022-12-29T15:47:12;9.50;99.90
67163;DHT22;54092;53.088;8.850;2022-12-29T15:49:42;9.50;99.90
67163;DHT22;54092;53.088;8.850;2022-12-29T15:52:08;9.50;99.90
67163;DHT22;54092;53.088;8.850;2022-12-29T15:54:35;9.50;99.90
67163;DHT22;54092;53.088;8.850;2022-12-29T15:57:01;9.50;99.90
67163;DHT22;54092;53.088;8.850;2022-12-29T15:59:30;9.50;99.90
67163;DHT22;54092;53.088;8.850;2022-12-29T16:01:57;9.50;99.90
67163;DHT22;54092;53.088;8.850;2022-12-29T16:04:27;9.40;99.90
67163;DHT22;54092;53.088;8.850;2022-12-29T16:07:05;9.30;99.90
67163;DHT22;54092;53.088;8.850;2022-12-29T16:09:41;9.30;99.90
67163;DHT22;54092;53.088;8.850;2022-12-29T16:12:20;9.20;99.90
67163;DHT22;54092;53.088;8.850;2022-12-29T16:14:57;9.20;99.90
67163;DHT22;54092;53.088;8.850;2022-12-29T16:17:30;9.10;99.90
67163;DHT22;54092;53.088;8.850;2022-12-29T16:20:03;9.10;99.90
67163;DHT22;54092;53.088;8.850;2022-12-29T16:22:38;9.00;99.90
67163;DHT22;54092;53.088;8.850;2022-12-29T16:25:13;9.10;99.90
67163;DHT22;54092;53.088;8.850;2022-12-29T16:27:42;9.00;99.90
67163;DHT22;54092;53.088;8.850;2022-12-29T16:30:23;9.00;99.90
67163;DHT22;54092;53.088;8.850;2022-12-29T16:32:51;9.00;99.90
67163;DHT22;54092;53.088;8.850;2022-12-29T16:35:18;9.00;99.90
67163;DHT22;54092;53.088;8.850;2022-12-29T16:37:45;9.10;99.90
67163;DHT22;54092;53.088;8.850;2022-12-29T16:40:25;9.10;99.90
67163;DHT22;54092;53.088;8.850;2022-12-29T16:42:57;9.10;99.90
67163;DHT22;54092;53.088;8.850;2022-12-29T16:46:22;9.10;99.90
67163;DHT22;54092;53.088;8.850;2022-12-29T16:48:25;9.10;99.90
67163;DHT22;54092;53.088;8.850;2022-12-29T16:50:51;9.20;99.90
67163;DHT22;54092;53.088;8.850;2022-12-29T16:53:24;9.20;99.90
67163;DHT22;54092;53.088;8.850;2022-12-29T16:55:52;9.20;99.90
67163;DHT22;54092;53.088;8.850;2022-12-29T16:58:24;9.20;99.90
67163;DHT22;54092;53.088;8.850;2022-12-29T17:00:54;9.20;99.90
67163;DHT22;54092;53.088;8.850;2022-12-29T17:03:20;9.30;99.90
67163;DHT22;54092;53.088;8.850;2022-12-29T17:05:46;9.20;99.90
67163;DHT22;54092;53.088;8.850;2022-12-29T17:08:19;9.20;99.90
67163;DHT22;54092;53.088;8.850;2022-12-29T17:10:52;9.20;99.90
67163;DHT22;54092;53.088;8.850;2022-12-29T17:13:37;9.10;99.90
67163;DHT22;54092;53.088;8.850;2022-12-29T17:16:04;9.10;99.90
67163;DHT22;54092;53.088;8.850;2022-12-29T17:18:32;9.10;99.90
67163;DHT22;54092;53.088;8.850;2022-12-29T17:20:57;9.10;99.90
67163;DHT22;54092;53.088;8.850;2022-12-29T17:23:23;9.10;99.90
67163;DHT22;54092;53.088;8.850;2022-12-29T17:25:48;9.10;99.90
67163;DHT22;54092;53.088;8.850;2022-12-29T17:30:47;9.10;99.90
67163;DHT22;54092;53.088;8.850;2022-12-29T17:33:16;9.10;99.90
67163;DHT22;54092;53.088;8.850;2022-12-29T17:35:42;9.10;99.90
67163;DHT22;54092;53.088;8.850;2022-12-29T17:38:17;9.10;99.90
67163;DHT22;54092;53.088;8.850;2022-12-29T17:40:43;9.00;99.90
67163;DHT22;54092;53.088;8.850;2022-12-29T17:43:13;9.10;99.90